Time;durP1;ratioP1;P1;durP2;ratioP2;P2;SDS_P1;SDS_P2;PMS_P1;PMS_P2;Temp;Humidity;BMP_temperature;BMP_pressure;BME280_temperature;BME280_humidity;BME280_pressure;Samples;Min_cycle;Max_cycle;Signal;HPM_P1;HPM_P2
2023/02/26 00:00:29;;;;;;;2.73;2.13;;;;;;;;;;5008479;28;20458;-75
2023/02/26 00:02:57;;;;;;;2.37;1.83;;;;;;;;;;5010736;28;20459;-74
2023/02/26 00:05:25;;;;;;;3.23;1.70;;;;;;;;;;5010280;28;20463;-72
2023/02/26 00:07:53;;;;;;;4.80;2.63;;;;;;;;;;5009709;28;20554;-72
2023/02/26 00:10:20;;;;;;;3.37;1.97;;;;;;;;;;5008203;28;20479;-72
2023/02/26 00:12:47;;;;;;;4.50;2.53;;;;;;;;;;5009509;28;20451;-72
2023/02/26 00:15:17;;;;;;;5.23;2.83;;;-0.20;99.90;;;;;;5009488;28;20448;-72
2023/02/26 00:17:47;;;;;;;2.67;2.47;;;;;;;;;;5001502;28;20481;-73
2023/02/26 00:20:15;;;;;;;2.90;2.60;;;;;;;;;;5009117;28;20483;-73
2023/02/26 00:22:44;;;;;;;5.20;2.73;;;;;;;;;;5001082;28;20451;-72
2023/02/26 00:25:13;;;;;;;2.73;2.40;;;;;;;;;;5007607;28;20505;-74
2023/02/26 00:27:41;;;;;;;3.00;2.40;;;;;;;;;;5009239;28;20492;-72
2023/02/26 00:30:09;;;;;;;2.60;2.20;;;;;;;;;;5009373;28;20447;-74
2023/02/26 00:32:38;;;;;;;4.27;3.57;;;;;;;;;;5009377;28;20462;-72
2023/02/26 00:35:05;;;;;;;2.43;2.27;;;;;;;;;;5009222;28;20671;-73
2023/02/26 00:37:37;;;;;;;3.20;2.23;;;;;;;;;;5008765;28;20443;-74
2023/02/26 00:40:15;;;;;;;2.93;2.70;;;;;;;;;;5011471;28;20455;-75
2023/02/26 00:42:42;;;;;;;2.50;2.10;;;;;;;;;;5004431;28;20457;-73
2023/02/26 00:45:11;;;;;;;2.40;2.20;;;-0.30;99.90;;;;;;5010860;28;20467;-74
2023/02/26 00:47:42;;;;;;;3.10;2.10;;;;;;;;;;5014956;28;20511;-76
2023/02/26 00:50:13;;;;;;;2.20;2.00;;;;;;;;;;5013416;28;20499;-74
2023/02/26 00:52:44;;;;;;;2.10;1.90;;;;;;;;;;5015612;28;20549;-76
2023/02/26 00:55:12;;;;;;;2.30;2.10;;;;;;;;;;4994462;28;20452;-74
2023/02/26 00:57:40;;;;;;;2.90;2.40;;;;;;;;;;4996099;28;20443;-74
2023/02/26 01:00:08;;;;;;;2.33;2.13;;;;;;;;;;5007726;28;20968;-73
2023/02/26 01:02:35;;;;;;;4.30;1.73;;;;;;;;;;5008917;28;20489;-72
2023/02/26 01:05:03;;;;;;;1.80;1.60;;;;;;;;;;5008657;28;20455;-73
2023/02/26 01:07:33;;;;;;;1.80;1.70;;;;;;;;;;5009554;28;20490;-76
2023/02/26 01:10:01;;;;;;;2.63;1.90;;;-0.40;99.90;;;;;;5010537;28;20545;-73
2023/02/26 01:12:29;;;;;;;2.63;2.23;;;;;;;;;;5011493;28;20842;-74
2023/02/26 01:14:57;;;;;;;4.50;1.67;;;;;;;;;;5002072;28;20484;-73
2023/02/26 01:17:25;;;;;;;1.60;1.50;;;;;;;;;;4995376;28;20443;-77
2023/02/26 01:19:54;;;;;;;1.97;1.57;;;;;;;;;;4996095;28;20473;-73
2023/02/26 01:22:23;;;;;;;2.13;1.80;;;;;;;;;;4995045;28;20445;-73
2023/02/26 01:24:54;;;;;;;1.73;1.53;;;;;;;;;;4998845;28;20475;-73
2023/02/26 01:27:22;;;;;;;2.13;1.50;;;;;;;;;;5008967;28;20479;-73
2023/02/26 01:29:50;;;;;;;2.00;1.70;;;;;;;;;;5009324;28;20459;-72
2023/02/26 01:32:20;;;;;;;2.63;1.70;;;;;;;;;;5007967;28;21196;-73
2023/02/26 01:34:52;;;;;;;2.17;1.87;;;;;;;;;;5009303;28;20500;-76
2023/02/26 01:37:23;;;;;;;1.80;1.60;;;;;;;;;;5009402;28;20953;-75
2023/02/26 01:39:55;;;;;;;2.93;2.20;;;;;;;;;;5009238;28;20451;-73
2023/02/26 01:42:24;;;;;;;2.20;2.10;;;;;;;;;;5008477;28;20826;-73
2023/02/26 01:44:56;;;;;;;3.10;2.60;;;;;;;;;;5008928;28;20482;-73
2023/02/26 01:47:28;;;;;;;3.00;2.10;;;;;;;;;;5008640;28;20493;-72
2023/02/26 01:49:55;;;;;;;1.80;1.70;;;;;;;;;;5011005;28;20843;-72
2023/02/26 01:53:00;;;;;;;2.77;2.10;;;-1.00;99.90;;;;;;5011797;28;20537;-73
2023/02/26 01:55:28;;;;;;;2.27;1.50;;;;;;;;;;4996063;28;20983;-72
2023/02/26 01:57:56;;;;;;;2.23;2.03;;;;;;;;;;5011463;28;20439;-72
2023/02/26 02:00:25;;;;;;;1.73;1.60;;;;;;;;;;5011658;28;20461;-73
2023/02/26 02:02:52;;;;;;;1.70;1.60;;;;;;;;;;5011582;28;20454;-72
2023/02/26 02:05:22;;;;;;;1.93;1.83;;;;;;;;;;5010339;28;20463;-72
2023/02/26 02:07:49;;;;;;;2.57;2.27;;;;;;;;;;5010792;28;21058;-72
2023/02/26 02:10:16;;;;;;;2.63;1.80;;;;;;;;;;5010988;28;20701;-73
2023/02/26 02:12:48;;;;;;;1.63;1.50;;;;;;;;;;5011342;28;20451;-72
2023/02/26 02:15:18;;;;;;;4.03;2.03;;;;;;;;;;5011807;28;20452;-74
2023/02/26 02:17:51;;;;;;;3.77;1.80;;;;;;;;;;5011746;28;20825;-74
2023/02/26 02:20:32;;;;;;;2.23;1.80;;;;;;;;;;5010221;28;20463;-72
2023/02/26 02:23:05;;;;;;;2.10;1.77;;;;;;;;;;5010903;28;20822;-73
2023/02/26 02:25:53;;;;;;;2.00;1.77;;;;;;;;;;5011050;28;20734;-72
2023/02/26 02:28:26;;;;;;;2.53;2.37;;;;;;;;;;5010839;28;20493;-72
2023/02/26 02:31:05;;;;;;;2.50;1.73;;;-0.80;99.90;;;;;;5011126;28;20474;-72
2023/02/26 02:33:35;;;;;;;2.43;1.60;;;;;;;;;;5010775;28;20463;-72
2023/02/26 02:36:03;;;;;;;3.80;2.10;;;;;;;;;;5009234;28;20482;-72
2023/02/26 02:38:33;;;;;;;2.40;1.70;;;;;;;;;;5010687;28;20443;-73
2023/02/26 02:41:05;;;;;;;1.93;1.77;;;;;;;;;;5010670;28;20459;-72
2023/02/26 02:43:34;;;;;;;2.87;1.80;;;;;;;;;;5010554;28;20452;-72
2023/02/26 02:46:04;;;;;;;2.20;1.60;;;;;;;;;;5010144;28;20659;-72
2023/02/26 02:48:32;;;;;;;2.00;1.50;;;;;;;;;;5010127;28;20486;-71
2023/02/26 02:51:00;;;;;;;2.37;1.60;;;;;;;;;;5010599;28;20451;-72
2023/02/26 02:53:31;;;;;;;4.50;2.10;;;;;;;;;;5009350;28;20468;-72
2023/02/26 02:56:00;;;;;;;2.10;1.60;;;;;;;;;;5010379;28;20451;-72
2023/02/26 02:58:29;;;;;;;2.60;1.97;;;;;;;;;;5009985;28;20454;-71
2023/02/26 03:00:58;;;;;;;3.23;1.80;;;;;;;;;;5009192;28;20458;-72
2023/02/26 03:03:28;;;;;;;1.90;1.40;;;;;;;;;;5010101;28;20453;-74
2023/02/26 03:05:55;;;;;;;1.63;1.47;;;;;;;;;;5010296;28;20448;-72
2023/02/26 03:08:24;;;;;;;1.80;1.70;;;;;;;;;;5008866;28;20870;-72
2023/02/26 03:10:51;;;;;;;2.60;1.60;;;;;;;;;;5009939;28;20964;-72
2023/02/26 03:13:20;;;;;;;2.17;1.50;;;;;;;;;;5010596;28;20460;-73
2023/02/26 03:15:51;;;;;;;1.87;1.43;;;;;;;;;;5012855;28;20466;-77
2023/02/26 03:18:23;;;;;;;1.70;1.53;;;;;;;;;;5016384;28;20477;-77
2023/02/26 03:20:56;;;;;;;1.70;1.30;;;;;;;;;;5014881;28;20475;-72
2023/02/26 03:23:27;;;;;;;2.43;2.23;;;;;;;;;;5010143;28;20455;-73
2023/02/26 03:25:57;;;;;;;2.03;1.50;;;;;;;;;;5008627;28;21111;-73
2023/02/26 03:28:31;;;;;;;2.27;1.67;;;-1.10;99.90;;;;;;5009573;28;20876;-73
2023/02/26 03:30:59;;;;;;;1.77;1.30;;;;;;;;;;5009928;28;20832;-73
2023/02/26 03:33:29;;;;;;;1.40;1.30;;;;;;;;;;5009522;28;20452;-72
2023/02/26 03:36:04;;;;;;;1.67;1.23;;;-1.20;99.90;;;;;;5009547;28;20457;-76
2023/02/26 03:38:33;;;;;;;1.50;1.30;;;;;;;;;;5016906;28;20960;-75
2023/02/26 03:41:02;;;;;;;5.63;1.60;;;;;;;;;;5006676;28;20489;-72
2023/02/26 03:43:31;;;;;;;1.60;1.37;;;;;;;;;;4989608;28;20452;-73
2023/02/26 03:46:00;;;;;;;5.30;1.60;;;;;;;;;;4990077;28;20474;-75
2023/02/26 03:48:29;;;;;;;4.10;1.30;;;;;;;;;;4989773;28;20492;-72
2023/02/26 03:51:03;;;;;;;2.50;1.20;;;-1.10;99.90;;;;;;4989728;28;20452;-72
2023/02/26 03:53:32;;;;;;;1.50;1.40;;;;;;;;;;4989901;28;20823;-72
2023/02/26 03:56:02;;;;;;;3.20;1.40;;;;;;;;;;4989656;28;20457;-72
2023/02/26 03:58:29;;;;;;;2.30;1.43;;;;;;;;;;4988680;28;20472;-72
2023/02/26 04:00:58;;;;;;;1.60;1.40;;;;;;;;;;4990021;28;20592;-73
2023/02/26 04:03:28;;;;;;;2.30;1.33;;;;;;;;;;4991315;28;20815;-72
2023/02/26 04:05:55;;;;;;;1.93;1.80;;;;;;;;;;4991961;28;20479;-73
2023/02/26 04:08:24;;;;;;;1.90;1.70;;;;;;;;;;4990690;28;20492;-72
2023/02/26 04:10:53;;;;;;;4.13;1.83;;;;;;;;;;4990305;28;20456;-72
2023/02/26 04:13:21;;;;;;;1.87;1.57;;;;;;;;;;4995013;28;20462;-73
2023/02/26 04:15:48;;;;;;;2.13;1.93;;;;;;;;;;5012395;28;20451;-72
2023/02/26 04:18:15;;;;;;;2.60;1.50;;;;;;;;;;5013069;28;20443;-72
2023/02/26 04:20:42;;;;;;;2.27;2.07;;;;;;;;;;5008765;28;20490;-73
2023/02/26 04:23:09;;;;;;;1.43;1.30;;;;;;;;;;5008665;28;20456;-73
2023/02/26 04:25:38;;;;;;;3.43;1.20;;;;;;;;;;5008791;28;20491;-73
2023/02/26 04:28:05;;;;;;;3.83;1.73;;;;;;;;;;5008348;28;20483;-72
2023/02/26 04:30:32;;;;;;;1.70;1.60;;;;;;;;;;4990723;28;20909;-72
2023/02/26 04:32:59;;;;;;;1.50;1.40;;;;;;;;;;4989300;28;20451;-72
2023/02/26 04:35:26;;;;;;;2.90;1.40;;;;;;;;;;4989327;28;20460;-72
2023/02/26 04:37:53;;;;;;;2.53;1.80;;;;;;;;;;4988858;28;20451;-73
2023/02/26 04:40:22;;;;;;;4.87;1.73;;;;;;;;;;4988796;28;20831;-72
2023/02/26 04:42:50;;;;;;;1.80;1.50;;;;;;;;;;4989230;28;20456;-72
2023/02/26 04:45:18;;;;;;;4.20;1.77;;;;;;;;;;4993265;28;20485;-72
2023/02/26 04:47:45;;;;;;;4.17;1.50;;;;;;;;;;5008195;28;20502;-75
2023/02/26 04:50:12;;;;;;;2.40;1.80;;;;;;;;;;5008701;28;20448;-73
2023/02/26 04:52:39;;;;;;;1.70;1.60;;;;;;;;;;5008274;28;20454;-74
2023/02/26 04:55:07;;;;;;;2.73;1.63;;;;;;;;;;5008333;28;20443;-72
2023/02/26 04:57:34;;;;;;;2.23;1.60;;;;;;;;;;5008177;28;20541;-72
2023/02/26 05:00:06;;;;;;;2.30;1.57;;;;;;;;;;5008342;28;20830;-72
2023/02/26 05:02:33;;;;;;;2.33;1.60;;;;;;;;;;5006732;28;20529;-72
2023/02/26 05:05:00;;;;;;;1.80;1.60;;;;;;;;;;5008421;28;20443;-72
2023/02/26 05:07:27;;;;;;;2.70;1.50;;;;;;;;;;5007768;28;20491;-72
2023/02/26 05:09:54;;;;;;;2.67;2.30;;;;;;;;;;5008178;28;20800;-73
2023/02/26 05:12:21;;;;;;;2.07;1.80;;;;;;;;;;5008298;28;20454;-72
2023/02/26 05:14:48;;;;;;;1.83;1.50;;;;;;;;;;5007970;28;20470;-73
2023/02/26 05:17:17;;;;;;;1.40;1.30;;;;;;;;;;5008347;28;20451;-73
2023/02/26 05:19:44;;;;;;;2.73;1.60;;;;;;;;;;5006815;28;20495;-72
2023/02/26 05:22:11;;;;;;;1.60;1.43;;;;;;;;;;5008170;28;20442;-72
2023/02/26 05:24:38;;;;;;;2.90;2.40;;;;;;;;;;5011646;28;20479;-71
2023/02/26 05:27:05;;;;;;;3.80;2.00;;;;;;;;;;5011631;28;20454;-72
2023/02/26 05:29:32;;;;;;;7.13;2.13;;;-2.30;99.90;;;;;;5012006;28;20461;-74
2023/02/26 05:31:59;;;;;;;3.20;1.60;;;;;;;;;;5012555;28;20458;-75
2023/02/26 05:34:27;;;;;;;3.53;1.80;;;;;;;;;;5011500;28;20940;-73
2023/02/26 05:36:55;;;;;;;4.23;1.67;;;;;;;;;;5010726;28;20471;-77
2023/02/26 05:39:21;;;;;;;5.23;1.77;;;-2.60;99.90;;;;;;5012327;28;20442;-78
2023/02/26 05:41:48;;;;;;;1.60;1.30;;;-2.60;99.90;;;;;;5012328;28;20498;-74
2023/02/26 05:44:15;;;;;;;3.67;1.93;;;-2.90;99.90;;;;;;5013723;28;20451;-75
2023/02/26 05:46:42;;;;;;;2.60;1.53;;;;;;;;;;5011703;28;20968;-75
2023/02/26 05:49:09;;;;;;;4.80;1.67;;;;;;;;;;5011760;28;20853;-74
2023/02/26 05:51:38;;;;;;;2.40;1.50;;;;;;;;;;5011004;28;20462;-75
2023/02/26 05:54:05;;;;;;;4.03;1.50;;;;;;;;;;5011780;28;20455;-74
2023/02/26 05:56:32;;;;;;;6.00;2.20;;;-2.70;99.90;;;;;;5005134;28;20463;-75
2023/02/26 05:58:59;;;;;;;5.13;1.60;;;;;;;;;;5007797;28;20462;-75
2023/02/26 06:01:26;;;;;;;3.83;1.60;;;;;;;;;;5012011;28;20470;-75
2023/02/26 06:03:53;;;;;;;8.07;1.70;;;-2.60;99.90;;;;;;5011446;28;20459;-75
2023/02/26 06:06:20;;;;;;;6.30;1.80;;;;;;;;;;5010176;28;20962;-75
2023/02/26 06:08:49;;;;;;;1.70;1.47;;;;;;;;;;4998782;28;21064;-75
2023/02/26 06:11:16;;;;;;;3.10;1.80;;;;;;;;;;5008360;28;20498;-75
2023/02/26 06:13:43;;;;;;;2.33;2.13;;;;;;;;;;5011800;28;20454;-75
2023/02/26 06:16:10;;;;;;;3.93;2.43;;;;;;;;;;5012112;28;20827;-75
2023/02/26 06:18:37;;;;;;;1.67;1.57;;;;;;;;;;5011465;28;20692;-75
2023/02/26 06:21:04;;;;;;;1.87;1.70;;;;;;;;;;5011375;28;20475;-75
2023/02/26 06:23:32;;;;;;;4.30;1.90;;;;;;;;;;5011379;28;20534;-75
2023/02/26 06:26:00;;;;;;;4.20;2.10;;;;;;;;;;5010546;28;20477;-75
2023/02/26 06:28:27;;;;;;;2.67;1.50;;;;;;;;;;5011978;28;20513;-74
2023/02/26 06:30:55;;;;;;;2.23;1.33;;;;;;;;;;5012342;28;20454;-75
2023/02/26 06:33:22;;;;;;;1.57;1.40;;;;;;;;;;5012799;28;20971;-76
2023/02/26 06:35:49;;;;;;;9.33;1.63;;;;;;;;;;5012760;28;20533;-74
2023/02/26 06:38:16;;;;;;;3.23;1.50;;;;;;;;;;5013703;28;20989;-76
2023/02/26 06:40:43;;;;;;;3.17;2.00;;;;;;;;;;5007989;28;20498;-76
2023/02/26 06:43:12;;;;;;;1.70;1.60;;;;;;;;;;5005552;28;21007;-76
2023/02/26 06:45:39;;;;;;;1.80;1.50;;;;;;;;;;5018535;28;20815;-77
2023/02/26 06:48:06;;;;;;;1.80;1.50;;;;;;;;;;5016926;28;20487;-80
2023/02/26 06:50:33;;;;;;;3.40;1.93;;;;;;;;;;4992467;28;20517;-75
2023/02/26 06:53:00;;;;;;;2.33;1.50;;;;;;;;;;4991703;28;20956;-75
2023/02/26 06:55:28;;;;;;;2.37;1.73;;;;;;;;;;4992000;28;20452;-75
2023/02/26 06:57:55;;;;;;;3.57;2.03;;;;;;;;;;4991916;28;20534;-75
2023/02/26 07:00:24;;;;;;;2.77;1.93;;;;;;;;;;5008928;28;21003;-76
2023/02/26 07:02:51;;;;;;;2.10;2.00;;;;;;;;;;5011650;28;20811;-76
2023/02/26 07:05:18;;;;;;;4.13;2.10;;;;;;;;;;5011411;28;20452;-75
2023/02/26 07:07:46;;;;;;;4.47;1.77;;;;;;;;;;5010750;28;20456;-75
2023/02/26 07:10:13;;;;;;;2.83;1.70;;;;;;;;;;5011981;28;20458;-76
2023/02/26 07:12:40;;;;;;;2.47;2.03;;;;;;;;;;5012273;28;20456;-77
2023/02/26 07:15:08;;;;;;;1.73;1.57;;;;;;;;;;5011453;28;20471;-77
2023/02/26 07:17:36;;;;;;;2.20;1.60;;;;;;;;;;5014699;28;20546;-77
2023/02/26 07:20:08;;;;;;;2.80;1.80;;;;;;;;;;5015056;28;20472;-76
2023/02/26 07:22:35;;;;;;;3.63;2.10;;;;;;;;;;5013778;28;20458;-75
2023/02/26 07:25:03;;;;;;;3.27;1.60;;;;;;;;;;5009103;28;21216;-73
2023/02/26 07:27:31;;;;;;;4.17;2.50;;;;;;;;;;5008700;28;20462;-74
2023/02/26 07:29:58;;;;;;;4.33;2.23;;;;;;;;;;5011667;28;20499;-75
2023/02/26 07:32:25;;;;;;;3.37;1.90;;;;;;;;;;5003574;28;20467;-76
2023/02/26 07:34:54;;;;;;;3.00;1.80;;;;;;;;;;5008151;28;20475;-74
2023/02/26 07:37:21;;;;;;;4.33;2.20;;;;;;;;;;5001578;28;20463;-74
2023/02/26 07:39:48;;;;;;;1.50;1.40;;;;;;;;;;4995107;28;20436;-75
2023/02/26 07:42:15;;;;;;;1.90;1.57;;;;;;;;;;4994261;28;20448;-76
2023/02/26 07:44:42;;;;;;;2.83;1.77;;;;;;;;;;4987076;28;20456;-73
2023/02/26 07:47:09;;;;;;;3.07;2.00;;;;;;;;;;4993639;28;20459;-78
2023/02/26 07:49:37;;;;;;;2.53;2.20;;;;;;;;;;4998453;28;20490;-74
2023/02/26 07:52:06;;;;;;;2.27;2.10;;;;;;;;;;5008450;28;20452;-75
2023/02/26 07:54:34;;;;;;;2.70;1.90;;;;;;;;;;5001720;28;20454;-75
2023/02/26 07:57:01;;;;;;;3.20;1.80;;;;;;;;;;5004027;28;20443;-76
2023/02/26 07:59:28;;;;;;;2.30;1.37;;;;;;;;;;5000215;28;20460;-75
2023/02/26 08:01:55;;;;;;;2.23;2.00;;;;;;;;;;5002199;28;20448;-75
2023/02/26 08:04:23;;;;;;;2.20;2.00;;;;;;;;;;4998493;28;20984;-76
2023/02/26 08:06:50;;;;;;;4.53;1.90;;;;;;;;;;5001270;28;20467;-80
2023/02/26 08:09:18;;;;;;;2.77;1.97;;;;;;;;;;5004123;28;20928;-77
2023/02/26 08:11:46;;;;;;;5.87;2.73;;;;;;;;;;4999813;28;20486;-74
2023/02/26 08:14:14;;;;;;;5.03;2.00;;;;;;;;;;5008609;28;20513;-73
2023/02/26 08:16:41;;;;;;;2.60;2.20;;;;;;;;;;5001632;28;20474;-75
2023/02/26 08:19:08;;;;;;;6.70;2.10;;;;;;;;;;5002092;28;20979;-74
2023/02/26 08:21:35;;;;;;;2.97;1.80;;;;;;;;;;4999905;28;20451;-75
2023/02/26 08:24:02;;;;;;;2.70;2.13;;;;;;;;;;5002232;28;20475;-76
2023/02/26 08:26:31;;;;;;;4.07;1.83;;;;;;;;;;4999268;28;20551;-76
2023/02/26 08:28:58;;;;;;;2.47;2.23;;;;;;;;;;5004464;28;20487;-74
2023/02/26 08:31:26;;;;;;;2.33;2.07;;;;;;;;;;5000231;28;20554;-74
2023/02/26 08:33:54;;;;;;;3.20;2.10;;;;;;;;;;4998772;28;20536;-74
2023/02/26 08:36:21;;;;;;;2.20;2.10;;;;;;;;;;5002752;28;21353;-76
2023/02/26 08:38:49;;;;;;;3.13;1.97;;;;;;;;;;5005262;28;20551;-74
2023/02/26 08:41:17;;;;;;;4.63;1.90;;;;;;;;;;4999796;28;20832;-75
2023/02/26 08:43:46;;;;;;;2.97;2.10;;;;;;;;;;4998883;28;20447;-78
2023/02/26 08:46:13;;;;;;;2.20;2.00;;;;;;;;;;4995405;28;20732;-73
2023/02/26 08:48:40;;;;;;;2.90;2.03;;;;;;;;;;4990500;28;20488;-73
2023/02/26 08:51:07;;;;;;;3.80;2.23;;;;;;;;;;5004404;28;20551;-74
2023/02/26 08:53:34;;;;;;;2.27;2.00;;;;;;;;;;4990807;28;20457;-75
2023/02/26 08:56:01;;;;;;;3.20;1.80;;;;;;;;;;4997349;28;20451;-75
2023/02/26 08:58:28;;;;;;;2.17;2.03;;;;;;;;;;5009972;28;20811;-76
2023/02/26 09:00:57;;;;;;;2.00;1.87;;;;;;;;;;5014128;28;20466;-78
2023/02/26 09:03:24;;;;;;;5.10;2.93;;;;;;;;;;5013637;28;20455;-76
2023/02/26 09:05:51;;;;;;;2.67;2.07;;;;;;;;;;5013106;28;20447;-75
2023/02/26 09:08:19;;;;;;;3.23;2.37;;;;;;;;;;5007217;28;20456;-74
2023/02/26 09:10:47;;;;;;;4.57;2.27;;;;;;;;;;4992693;28;20461;-74
2023/02/26 09:13:14;;;;;;;5.47;2.53;;;;;;;;;;4993049;28;21041;-75
2023/02/26 09:15:41;;;;;;;3.50;2.17;;;;;;;;;;4992481;28;20460;-77
2023/02/26 09:18:14;;;;;;;5.50;2.97;;;;;;;;;;4995678;28;20459;-75
2023/02/26 09:20:41;;;;;;;4.23;3.10;;;;;;;;;;4995230;28;20473;-75
2023/02/26 09:23:09;;;;;;;2.47;2.27;;;;;;;;;;5001354;28;20860;-75
2023/02/26 09:25:36;;;;;;;3.83;3.20;;;;;;;;;;5013604;28;20479;-79
2023/02/26 09:28:03;;;;;;;3.90;2.27;;;;;;;;;;5014366;28;20462;-78
2023/02/26 09:30:30;;;;;;;2.10;1.90;;;;;;;;;;5014748;28;20924;-77
2023/02/26 09:32:57;;;;;;;3.67;2.93;;;;;;;;;;5002060;28;20476;-74
2023/02/26 09:35:26;;;;;;;3.23;3.03;;;;;;;;;;4997589;28;21012;-75
2023/02/26 09:37:53;;;;;;;4.37;2.83;;;;;;;;;;5009288;28;20447;-74
2023/02/26 09:40:24;;;;;;;2.57;2.37;;;;;;;;;;5012342;28;20459;-78
2023/02/26 09:43:00;;;;;;;3.47;2.90;;;;;;;;;;4995481;28;20464;-77
2023/02/26 09:45:30;;;;;;;3.47;2.87;;;;;;;;;;5002120;28;20524;-77
2023/02/26 09:47:58;;;;;;;3.33;3.03;;;;;;;;;;5016348;28;20522;-77
2023/02/26 09:50:29;;;;;;;2.60;2.27;;;;;;;;;;5029822;28;20487;-80
2023/02/26 09:52:59;;;;;;;4.60;3.00;;;;;;;;;;5026418;28;20518;-79
2023/02/26 09:55:29;;;;;;;3.87;2.77;;;;;;;;;;5016941;28;20448;-76
2023/02/26 09:57:59;;;;;;;3.10;2.70;;;;;;;;;;5020443;28;20456;-78
2023/02/26 10:00:30;;;;;;;5.23;3.23;;;;;;;;;;5021643;28;20512;-78
2023/02/26 10:03:01;;;;;;;3.67;3.30;;;;;;;;;;4996429;28;20530;-77
2023/02/26 10:05:33;;;;;;;9.43;3.17;;;;;;;;;;4992239;28;20459;-76
2023/02/26 10:08:02;;;;;;;3.33;3.10;;;;;;;;;;4992714;28;20957;-76
2023/02/26 10:10:34;;;;;;;3.57;3.27;;;;;;;;;;4995760;28;20496;-75
2023/02/26 10:13:01;;;;;;;5.20;2.73;;;;;;;;;;4997931;28;20452;-77
2023/02/26 10:15:31;;;;;;;2.43;2.23;;;;;;;;;;5000583;28;20475;-75
2023/02/26 10:18:03;;;;;;;4.10;3.33;;;;;;;;;;5004637;28;20431;-74
2023/02/26 10:20:35;;;;;;;3.33;3.00;;;;;;;;;;5001454;28;20564;-74
2023/02/26 10:23:04;;;;;;;3.90;3.10;;;;;;;;;;4999988;28;20443;-74
2023/02/26 10:25:35;;;;;;;3.23;3.03;;;;;;;;;;5001194;28;20528;-75
2023/02/26 10:28:05;;;;;;;3.97;2.83;;;;;;;;;;4999577;28;20459;-74
2023/02/26 10:30:36;;;;;;;2.80;2.57;;;;;;;;;;5008520;28;20487;-75
2023/02/26 10:33:07;;;;;;;4.97;2.90;;;;;;;;;;5013078;28;20456;-78
2023/02/26 10:35:42;;;;;;;4.63;4.13;;;;;;;;;;5012492;28;20467;-76
2023/02/26 10:38:12;;;;;;;3.23;3.00;;;;;;;;;;5013145;28;20455;-75
2023/02/26 10:40:41;;;;;;;3.97;3.20;;;;;;;;;;5011916;28;20451;-75
2023/02/26 10:43:11;;;;;;;4.23;3.40;;;;;;;;;;5005770;28;20942;-75
2023/02/26 10:45:42;;;;;;;3.43;3.13;;;;;;;;;;4991694;28;20461;-75
2023/02/26 10:48:17;;;;;;;3.10;2.47;;;;;;;;;;4992056;28;20445;-75
2023/02/26 10:50:49;;;;;;;2.70;2.47;;;;;;;;;;4991704;28;20619;-76
2023/02/26 10:53:16;;;;;;;3.07;2.80;;;;;;;;;;4992559;28;20452;-74
2023/02/26 10:55:45;;;;;;;2.80;2.27;;;;;;;;;;4991437;28;20456;-75
2023/02/26 10:58:14;;;;;;;2.80;2.60;;;;;;;;;;5003147;28;20459;-76
2023/02/26 11:00:41;;;;;;;2.80;2.60;;;;;;;;;;4999502;28;20522;-75
2023/02/26 11:03:09;;;;;;;4.30;3.00;;;;;;;;;;5011450;28;21033;-75
2023/02/26 11:05:36;;;;;;;3.17;2.87;;;;;;;;;;5011175;28;20459;-78
2023/02/26 11:08:10;;;;;;;2.57;2.13;;;;;;;;;;5012109;28;20475;-77
2023/02/26 11:10:48;;;;;;;2.87;2.67;;;;;;;;;;5014439;28;20560;-79
2023/02/26 11:13:15;;;;;;;3.13;2.83;;;;;;;;;;5015887;28;20456;-79
2023/02/26 11:15:44;;;;;;;2.70;2.50;;;;;;;;;;5015651;28;20451;-81
2023/02/26 11:18:15;;;;;;;4.43;2.83;;;;;;;;;;5014669;28;20761;-81
2023/02/26 11:20:44;;;;;;;2.90;2.70;;;;;;;;;;5013939;28;20977;-78
2023/02/26 11:23:14;;;;;;;2.80;2.60;;;;;;;;;;5016562;28;20452;-79
2023/02/26 11:25:41;;;;;;;3.73;3.40;;;;;;;;;;5014224;28;20487;-78
2023/02/26 11:28:19;;;;;;;2.70;2.50;;;;;;;;;;5014513;28;20476;-79
2023/02/26 11:30:48;;;;;;;3.30;2.50;;;1.30;99.90;;;;;;5005337;28;20484;-80
2023/02/26 11:33:19;;;;;;;2.57;2.37;;;1.60;99.90;;;;;;5002055;28;20437;-78
2023/02/26 11:35:47;;;;;;;2.93;2.70;;;1.30;99.90;;;;;;4997577;28;20540;-78
2023/02/26 11:38:21;;;;;;;3.40;3.10;;;0.80;99.90;;;;;;4997891;28;20457;-78
2023/02/26 11:40:54;;;;;;;2.43;2.23;;;0.50;99.90;;;;;;5005255;28;20450;-79
2023/02/26 11:43:23;;;;;;;2.93;2.73;;;0.80;99.90;;;;;;5000455;28;20464;-79
2023/02/26 11:45:54;;;;;;;3.00;2.43;;;1.10;99.90;;;;;;4990803;28;20478;-78
2023/02/26 11:48:24;;;;;;;2.93;2.60;;;1.70;99.90;;;;;;4989562;28;21040;-79
2023/02/26 11:50:55;;;;;;;3.40;2.90;;;2.00;99.90;;;;;;4989945;28;21117;-80
2023/02/26 11:53:30;;;;;;;3.67;3.10;;;1.90;99.90;;;;;;5001520;28;20471;-76
2023/02/26 11:56:01;;;;;;;2.80;2.60;;;1.50;99.90;;;;;;5000552;28;20451;-77
2023/02/26 11:58:30;;;;;;;3.30;3.07;;;1.00;99.90;;;;;;5002895;28;21179;-74
2023/02/26 12:01:02;;;;;;;2.10;2.00;;;0.70;99.90;;;;;;5000564;28;20466;-73
2023/02/26 12:03:32;;;;;;;2.83;2.53;;;0.50;99.90;;;;;;4994904;28;20449;-77
2023/02/26 12:06:00;;;;;;;2.83;2.50;;;0.30;99.90;;;;;;4989513;28;20530;-72
2023/02/26 12:08:37;;;;;;;4.20;2.77;;;0.20;99.90;;;;;;4990266;28;20532;-72
2023/02/26 12:11:39;;;;;;;5.27;3.60;;;0.10;99.90;;;;;;4988532;28;20531;-74
2023/02/26 12:14:29;;;;;;;3.00;2.30;;;0.50;99.90;;;;;;4989227;28;20868;-74
2023/02/26 12:17:06;;;;;;;3.10;2.80;;;0.50;99.90;;;;;;4995621;28;20471;-72
2023/02/26 12:19:42;;;;;;;2.40;2.20;;;1.60;99.90;;;;;;5008524;28;20474;-74
2023/02/26 12:22:27;;;;;;;2.30;2.13;;;1.30;99.90;;;;;;5008772;28;20482;-75
2023/02/26 12:25:23;;;;;;;2.53;2.27;;;2.90;99.90;;;;;;5007416;28;20559;-77
2023/02/26 12:28:20;;;;;;;2.23;2.13;;;4.10;99.90;;;;;;5007119;28;20532;-75
2023/02/26 12:31:02;;;;;;;2.07;1.97;;;5.60;99.90;;;;;;5007232;28;20494;-76
2023/02/26 12:33:43;;;;;;;2.17;2.00;;;6.30;99.90;;;;;;5004155;28;20991;-74
2023/02/26 12:36:22;;;;;;;2.00;1.90;;;6.50;99.90;;;;;;5006539;28;20980;-75
2023/02/26 12:38:59;;;;;;;6.67;6.03;;;7.20;99.90;;;;;;4995700;28;21196;-77
2023/02/26 12:41:50;;;;;;;2.40;2.30;;;6.90;99.90;;;;;;4999825;28;20472;-74
2023/02/26 12:44:37;;;;;;;3.40;3.10;;;6.10;99.90;;;;;;5001682;28;20457;-78
2023/02/26 12:47:24;;;;;;;2.40;2.20;;;4.30;99.90;;;;;;4995987;28;20468;-76
2023/02/26 12:50:06;;;;;;;2.10;2.00;;;3.50;99.90;;;;;;4992399;28;20484;-78
2023/02/26 12:52:57;;;;;;;2.90;2.50;;;6.40;99.90;;;;;;4989734;28;20452;-77
2023/02/26 12:55:33;;;;;;;2.80;1.90;;;8.40;99.90;;;;;;4996734;28;21008;-75
2023/02/26 12:58:24;;;;;;;2.63;2.10;;;9.00;99.90;;;;;;4998287;28;20925;-76
2023/02/26 13:01:04;;;;;;;2.10;2.00;;;9.60;99.90;;;;;;4989568;28;20838;-75
2023/02/26 13:04:02;;;;;;;1.93;1.70;;;8.90;99.90;;;;;;4994001;28;21009;-77
2023/02/26 13:06:47;;;;;;;1.83;1.67;;;8.80;99.90;;;;;;4998186;28;20460;-75
2023/02/26 13:09:25;;;;;;;2.37;2.27;;;7.30;99.90;;;;;;4994609;28;20453;-77
2023/02/26 13:11:57;;;;;;;2.17;2.07;;;;;;;;;;4994794;28;20579;-75
2023/02/26 13:14:40;;;;;;;2.17;2.00;;;5.50;99.90;;;;;;4994817;28;20440;-74
2023/02/26 13:17:13;;;;;;;2.80;2.60;;;4.10;99.90;;;;;;4996813;28;20448;-76
2023/02/26 13:19:46;;;;;;;1.73;1.63;;;;;;;;;;4996030;28;20469;-76
2023/02/26 13:22:16;;;;;;;5.40;3.57;;;;;;;;;;4997910;28;20457;-84
2023/02/26 13:24:48;;;;;;;2.23;2.03;;;1.40;99.90;;;;;;4997692;28;20500;-76
2023/02/26 13:27:16;;;;;;;5.60;2.10;;;1.40;99.90;;;;;;4995448;28;20500;-76
2023/02/26 13:29:49;;;;;;;2.50;2.30;;;1.40;99.90;;;;;;4997988;28;20445;-75
2023/02/26 13:32:19;;;;;;;2.30;2.00;;;0.90;99.90;;;;;;4997097;28;20458;-76
2023/02/26 13:34:52;;;;;;;1.83;1.73;;;1.00;99.90;;;;;;4996063;28;20478;-76
2023/02/26 13:37:25;;;;;;;2.30;2.10;;;1.60;99.90;;;;;;4999363;28;20433;-76
2023/02/26 13:40:05;;;;;;;2.17;1.90;;;2.40;99.90;;;;;;5004917;28;20478;-81
2023/02/26 13:42:38;;;;;;;2.80;1.80;;;3.30;99.90;;;;;;5001065;28;20453;-82
2023/02/26 13:45:23;;;;;;;2.17;1.97;;;3.10;99.90;;;;;;5004876;28;20839;-74
2023/02/26 13:48:04;;;;;;;2.87;2.40;;;2.50;99.90;;;;;;5008479;28;20453;-77
2023/02/26 13:50:42;;;;;;;2.50;2.30;;;2.40;99.90;;;;;;5000396;28;20860;-76
2023/02/26 13:53:42;;;;;;;3.47;3.17;;;2.00;99.90;;;;;;5000146;28;20441;-76
2023/02/26 13:56:14;;;;;;;2.20;1.97;;;1.80;99.90;;;;;;5001327;28;20456;-80
2023/02/26 13:58:43;;;;;;;2.20;1.93;;;1.10;99.90;;;;;;5000211;28;20456;-77
2023/02/26 14:01:17;;;;;;;3.10;2.80;;;1.50;99.90;;;;;;5002564;28;20437;-79
2023/02/26 14:03:49;;;;;;;3.23;2.40;;;1.60;99.90;;;;;;4993425;28;20547;-89
2023/02/26 14:06:38;;;;;;;2.80;2.20;;;2.10;99.90;;;;;;4996534;28;20437;-81
2023/02/26 14:09:26;;;;;;;4.40;3.13;;;2.30;99.90;;;;;;5002468;28;20543;-76
2023/02/26 14:12:00;;;;;;;2.60;2.00;;;1.90;99.90;;;;;;5011497;28;20495;-77
2023/02/26 14:14:40;;;;;;;3.10;2.63;;;1.80;99.90;;;;;;5002676;28;20552;-76
2023/02/26 14:17:38;;;;;;;4.30;2.20;;;1.80;99.90;;;;;;4995384;28;20484;-77
2023/02/26 14:20:24;;;;;;;1.77;1.67;;;1.40;99.90;;;;;;4994109;28;20480;-78
2023/02/26 14:22:53;;;;;;;2.77;1.90;;;1.50;99.90;;;;;;5005690;28;20455;-80
2023/02/26 14:25:29;;;;;;;1.50;1.40;;;3.40;99.90;;;;;;4998256;28;20492;-83
2023/02/26 14:28:11;;;;;;;4.87;3.57;;;;;;;;;;4990957;28;20810;-79
2023/02/26 14:30:47;;;;;;;2.20;1.97;;;6.00;99.90;;;;;;5001063;28;20487;-79
2023/02/26 14:33:18;;;;;;;2.20;2.00;;;6.50;99.90;;;;;;5010271;28;20436;-79
2023/02/26 14:35:49;;;;;;;2.50;2.30;;;6.90;99.90;;;;;;5010342;28;20472;-83